createdAt,value
2023-07-18T00:02:03.057Z,16.67
2023-07-18T00:06:59.120Z,15.83
2023-07-18T00:09:27.880Z,14.77
2023-07-18T00:11:56.489Z,14.10
2023-07-18T00:14:24.832Z,14.33
2023-07-18T00:16:52.922Z,15.07
2023-07-18T00:19:21.369Z,14.77
2023-07-18T00:21:49.408Z,13.80
2023-07-18T00:24:17.359Z,14.30
2023-07-18T00:26:46.028Z,13.93
2023-07-18T00:29:14.102Z,13.47
2023-07-18T00:31:43.044Z,13.43
2023-07-18T00:34:12.845Z,13.43
2023-07-18T00:36:41.482Z,13.20
2023-07-18T00:39:10.770Z,12.83
2023-07-18T00:41:39.606Z,14.00
2023-07-18T00:44:08.757Z,13.43
2023-07-18T00:49:05.218Z,13.43
2023-07-18T00:51:33.999Z,13.63
2023-07-18T00:54:02.814Z,12.83
2023-07-18T00:56:31.359Z,12.97
2023-07-18T00:59:00.784Z,13.70
2023-07-18T01:01:29.842Z,13.23
2023-07-18T01:03:58.451Z,13.63
2023-07-18T01:06:27.068Z,13.73
2023-07-18T01:08:55.213Z,14.40
2023-07-18T01:11:23.807Z,13.70
2023-07-18T01:13:52.786Z,14.57
2023-07-18T01:16:21.626Z,14.27
2023-07-18T01:18:50.487Z,13.63
2023-07-18T01:21:20.710Z,13.77
2023-07-18T01:23:49.906Z,15.63
2023-07-18T01:26:18.597Z,14.70
2023-07-18T01:28:47.160Z,13.33
2023-07-18T01:31:15.919Z,14.00
2023-07-18T01:33:45.141Z,14.97
2023-07-18T01:36:13.839Z,14.37
2023-07-18T01:38:41.951Z,13.73
2023-07-18T01:41:11.119Z,14.80
2023-07-18T01:43:40.213Z,13.80
2023-07-18T01:48:36.350Z,14.10
2023-07-18T01:51:04.923Z,14.87
2023-07-18T01:53:33.010Z,12.83
2023-07-18T01:56:01.596Z,15.03
2023-07-18T01:58:29.750Z,13.50
2023-07-18T02:00:58.595Z,14.97
2023-07-18T02:03:27.632Z,16.40
2023-07-18T02:08:24.209Z,14.60
2023-07-18T02:15:47.202Z,15.63
2023-07-18T02:18:15.369Z,15.80
2023-07-18T02:20:44.152Z,16.47
2023-07-18T02:23:13.099Z,16.20
2023-07-18T02:25:41.136Z,16.60
2023-07-18T02:28:09.795Z,18.33
2023-07-18T02:30:38.037Z,16.90
2023-07-18T02:33:08.513Z,17.67
2023-07-18T02:35:37.291Z,17.90
2023-07-18T02:38:05.968Z,18.83
2023-07-18T02:40:34.693Z,17.97
2023-07-18T02:43:03.445Z,18.50
2023-07-18T02:45:32.048Z,17.23
2023-07-18T02:48:00.798Z,17.00
2023-07-18T02:50:29.624Z,17.53
2023-07-18T02:52:59.323Z,18.90
2023-07-18T02:55:29.546Z,16.90
2023-07-18T02:57:57.552Z,18.13
2023-07-18T03:00:27.534Z,17.90
2023-07-18T03:02:56.184Z,17.87
2023-07-18T03:05:24.497Z,17.27
2023-07-18T03:07:54.623Z,17.73
2023-07-18T03:10:23.265Z,18.97
2023-07-18T03:12:51.400Z,18.80
2023-07-18T03:15:21.828Z,18.50
2023-07-18T03:17:50.000Z,18.57
2023-07-18T03:20:18.883Z,18.77
2023-07-18T03:22:48.853Z,17.80
2023-07-18T03:25:19.219Z,17.60
2023-07-18T03:27:48.404Z,16.57
2023-07-18T03:30:17.876Z,16.63
2023-07-18T03:32:46.635Z,17.33
2023-07-18T03:35:15.667Z,16.57
2023-07-18T03:37:44.721Z,15.97
2023-07-18T03:42:40.225Z,15.90
2023-07-18T03:45:10.864Z,16.57
2023-07-18T03:47:39.807Z,16.43
2023-07-18T03:50:09.539Z,15.43
2023-07-18T03:52:38.377Z,15.83
2023-07-18T03:55:08.329Z,16.20
2023-07-18T03:57:37.058Z,15.93
2023-07-18T04:00:08.325Z,15.60
2023-07-18T04:02:38.082Z,15.43
2023-07-18T04:05:06.889Z,16.13
2023-07-18T04:07:35.593Z,16.00
2023-07-18T04:10:03.956Z,16.07
2023-07-18T04:12:32.755Z,15.73
2023-07-18T04:15:01.332Z,14.80
2023-07-18T04:17:30.047Z,15.50
2023-07-18T04:20:01.029Z,16.40
2023-07-18T04:22:32.893Z,15.63
2023-07-18T04:25:01.644Z,14.53
2023-07-18T04:27:30.028Z,15.57
2023-07-18T04:29:58.677Z,14.67
2023-07-18T04:32:27.497Z,15.27
2023-07-18T04:34:56.159Z,14.43
2023-07-18T04:37:25.173Z,14.53
2023-07-18T04:39:54.040Z,15.27
2023-07-18T04:42:22.182Z,14.50
2023-07-18T04:44:50.871Z,15.23
2023-07-18T04:49:46.727Z,14.40
2023-07-18T04:54:43.274Z,15.60
2023-07-18T04:57:11.387Z,16.67
2023-07-18T04:59:40.029Z,15.40
2023-07-18T05:04:35.699Z,16.23
2023-07-18T05:09:30.507Z,16.42
2023-07-18T05:11:59.182Z,16.03
2023-07-18T05:14:27.861Z,16.67
2023-07-18T05:16:56.576Z,16.37
2023-07-18T05:19:24.663Z,17.17
2023-07-18T05:21:53.255Z,17.40
2023-07-18T05:26:49.036Z,15.90
2023-07-18T05:31:43.902Z,14.33
2023-07-18T05:34:12.213Z,16.27
2023-07-18T05:36:40.845Z,18.90
2023-07-18T05:41:36.164Z,20.17
2023-07-18T05:44:04.069Z,19.27
2023-07-18T05:46:32.719Z,20.83
2023-07-18T05:51:28.319Z,18.05
2023-07-18T05:53:56.399Z,19.00
2023-07-18T05:56:24.998Z,18.07
2023-07-18T05:58:53.678Z,19.20
2023-07-18T06:03:48.952Z,18.82
2023-07-18T06:06:17.040Z,18.83
2023-07-18T06:08:45.671Z,17.63
2023-07-18T06:13:42.923Z,18.35
2023-07-18T06:16:10.949Z,18.00
2023-07-18T06:18:39.181Z,18.90
2023-07-18T06:21:07.744Z,21.80
2023-07-18T06:23:36.337Z,19.40
2023-07-18T06:26:06.645Z,18.97
2023-07-18T06:28:35.148Z,18.77
2023-07-18T06:31:04.811Z,17.97
2023-07-18T06:33:33.916Z,20.10
2023-07-18T06:36:02.523Z,19.03
2023-07-18T06:40:58.586Z,17.37
2023-07-18T06:45:54.900Z,18.27
2023-07-18T06:48:23.626Z,16.93
2023-07-18T06:50:53.105Z,17.00
2023-07-18T06:53:23.355Z,16.90
2023-07-18T06:55:52.536Z,18.60
2023-07-18T06:58:20.691Z,18.70
2023-07-18T07:00:50.672Z,15.23
2023-07-18T07:03:19.298Z,17.43
2023-07-18T07:05:48.208Z,16.20
2023-07-18T07:08:18.417Z,14.83
2023-07-18T07:10:47.012Z,17.30
2023-07-18T07:15:42.950Z,15.40
2023-07-18T07:18:11.501Z,17.97
2023-07-18T07:23:07.305Z,16.80
2023-07-18T07:25:37.068Z,17.80
2023-07-18T07:28:05.909Z,15.20
2023-07-18T07:30:34.455Z,16.57
2023-07-18T07:35:31.834Z,16.32
2023-07-18T07:38:00.820Z,17.77
2023-07-18T07:40:29.719Z,16.03
2023-07-18T07:42:58.305Z,16.83
2023-07-18T07:47:53.063Z,16.02
2023-07-18T07:50:21.287Z,16.23
2023-07-18T07:52:49.570Z,15.70
2023-07-18T07:55:18.457Z,15.67
2023-07-18T07:57:47.244Z,15.93
2023-07-18T08:00:16.011Z,15.83
2023-07-18T08:02:44.687Z,15.80
2023-07-18T08:05:13.295Z,16.60
2023-07-18T08:10:09.762Z,17.42
2023-07-18T08:12:37.742Z,17.23
2023-07-18T08:15:05.964Z,16.83
2023-07-18T08:17:35.041Z,17.00
2023-07-18T08:20:06.459Z,16.93
2023-07-18T08:22:36.208Z,16.17
2023-07-18T08:25:05.120Z,16.03
2023-07-18T08:27:34.144Z,16.57
2023-07-18T08:30:02.746Z,15.80
2023-07-18T08:32:31.846Z,15.70
2023-07-18T08:35:00.109Z,17.10
2023-07-18T08:37:28.684Z,16.77
2023-07-18T08:39:56.765Z,16.57
2023-07-18T08:42:26.871Z,16.17
2023-07-18T08:44:56.793Z,17.37
2023-07-18T08:47:25.667Z,16.83
2023-07-18T08:49:54.576Z,17.70
2023-07-18T08:52:23.411Z,17.87
2023-07-18T08:54:52.263Z,18.07
2023-07-18T08:57:21.958Z,17.07
2023-07-18T08:59:50.294Z,15.20
2023-07-18T09:02:18.732Z,17.93
2023-07-18T09:04:48.690Z,17.50
2023-07-18T09:07:17.331Z,17.43
2023-07-18T09:09:49.287Z,17.87
2023-07-18T09:12:17.974Z,16.93
2023-07-18T09:14:46.785Z,16.60
2023-07-18T09:17:15.163Z,16.80
2023-07-18T09:19:44.756Z,16.27
2023-07-18T09:22:13.472Z,16.63
2023-07-18T09:24:43.062Z,16.13
2023-07-18T09:27:14.411Z,14.87
2023-07-18T09:29:49.859Z,15.53
2023-07-18T09:32:20.564Z,14.37
2023-07-18T09:34:55.748Z,15.60
2023-07-18T09:37:24.008Z,14.87
2023-07-18T09:39:52.778Z,15.30
2023-07-18T09:42:21.935Z,15.40
2023-07-18T09:44:53.393Z,15.90
2023-07-18T09:47:22.748Z,15.97
2023-07-18T09:49:51.776Z,16.23
2023-07-18T09:52:21.811Z,15.60
2023-07-18T09:54:50.476Z,14.87
2023-07-18T09:57:20.454Z,15.30
2023-07-18T09:59:50.860Z,15.30
2023-07-18T10:02:19.511Z,15.67
2023-07-18T10:04:50.598Z,14.60
2023-07-18T10:07:19.259Z,13.10
2023-07-18T10:09:48.987Z,13.40
2023-07-18T10:12:18.083Z,12.33
2023-07-18T10:14:51.027Z,13.60
2023-07-18T10:17:35.668Z,13.70
2023-07-18T10:20:08.764Z,12.67
2023-07-18T10:22:37.574Z,12.90
2023-07-18T10:25:09.366Z,11.63
2023-07-18T10:27:42.849Z,12.07
2023-07-18T10:30:12.780Z,11.17
2023-07-18T10:32:43.504Z,12.40
2023-07-18T10:35:15.281Z,9.17
2023-07-18T10:37:46.852Z,8.40
2023-07-18T10:40:17.202Z,8.03
2023-07-18T10:42:46.151Z,8.80
2023-07-18T10:45:14.325Z,9.57
2023-07-18T10:47:43.161Z,8.30
2023-07-18T10:50:11.697Z,7.00
2023-07-18T10:55:08.413Z,6.85
2023-07-18T10:57:40.924Z,5.50
2023-07-18T11:00:09.928Z,5.13
2023-07-18T11:02:43.509Z,5.20
2023-07-18T11:05:13.364Z,4.53
2023-07-18T11:07:42.970Z,5.17
2023-07-18T11:10:12.262Z,4.70
2023-07-18T11:12:41.348Z,4.90
2023-07-18T11:15:10.651Z,4.63
2023-07-18T11:17:39.755Z,4.80
2023-07-18T11:20:09.282Z,5.73
2023-07-18T11:22:37.950Z,5.10
2023-07-18T11:25:06.544Z,5.30
2023-07-18T11:27:35.030Z,4.83
2023-07-18T11:32:36.088Z,5.20
2023-07-18T11:35:05.961Z,4.97
2023-07-18T11:37:41.600Z,5.47
2023-07-18T11:40:05.295Z,5.17
2023-07-18T11:42:46.678Z,5.17
2023-07-18T11:45:17.980Z,5.23
2023-07-18T11:47:53.898Z,5.30
2023-07-18T11:50:25.089Z,5.60
2023-07-18T11:52:54.840Z,5.33
2023-07-18T11:55:24.373Z,5.30
2023-07-18T11:57:52.960Z,5.77
2023-07-18T12:00:21.940Z,5.80
2023-07-18T12:02:50.954Z,5.80
2023-07-18T12:05:20.207Z,4.83
2023-07-18T12:07:48.672Z,4.53
2023-07-18T12:12:48.032Z,5.65
2023-07-18T12:15:16.703Z,6.07
2023-07-18T12:17:45.279Z,5.63
2023-07-18T12:20:14.380Z,5.83
2023-07-18T12:22:43.239Z,5.90
2023-07-18T12:25:11.858Z,6.03
2023-07-18T12:27:40.034Z,6.53
2023-07-18T12:30:10.666Z,6.13
2023-07-18T12:32:39.996Z,6.17
2023-07-18T12:35:09.307Z,5.77
2023-07-18T12:37:37.299Z,5.57
2023-07-18T12:40:06.314Z,4.93
2023-07-18T12:42:34.755Z,5.57
2023-07-18T12:45:03.401Z,6.53
2023-07-18T12:47:31.437Z,5.70
2023-07-18T12:49:59.633Z,5.60
2023-07-18T12:52:28.218Z,5.77
2023-07-18T12:54:56.371Z,5.30
2023-07-18T12:57:24.986Z,6.07
2023-07-18T12:59:54.497Z,5.87
2023-07-18T13:02:23.023Z,5.83
2023-07-18T13:07:19.226Z,5.78
2023-07-18T13:12:14.716Z,5.53
2023-07-18T13:14:43.147Z,5.50
2023-07-18T13:19:39.164Z,5.58
2023-07-18T13:22:07.436Z,5.27
2023-07-18T13:24:35.855Z,5.50
2023-07-18T13:29:31.349Z,4.72
2023-07-18T13:32:00.076Z,5.03
2023-07-18T13:34:28.854Z,5.67
2023-07-18T13:36:56.922Z,5.27
2023-07-18T13:39:25.555Z,5.63
2023-07-18T13:41:54.379Z,5.13
2023-07-18T13:44:23.063Z,4.93
2023-07-18T13:46:52.286Z,5.57
2023-07-18T13:49:21.676Z,5.03
2023-07-18T13:51:51.370Z,5.20
2023-07-18T13:54:20.057Z,5.00
2023-07-18T13:56:48.854Z,4.80
2023-07-18T13:59:16.995Z,5.10
2023-07-18T14:01:46.836Z,5.90
2023-07-18T14:04:15.881Z,5.40
2023-07-18T14:06:44.566Z,4.90
2023-07-18T14:09:13.190Z,4.97
2023-07-18T14:11:41.750Z,5.13
2023-07-18T14:14:10.498Z,4.77
2023-07-18T14:16:38.589Z,4.87
2023-07-18T14:19:07.451Z,5.40
2023-07-18T14:21:36.099Z,5.07
2023-07-18T14:24:05.329Z,4.47
2023-07-18T14:26:33.427Z,4.97
2023-07-18T14:29:02.274Z,5.00
2023-07-18T14:31:31.403Z,4.23
2023-07-18T14:34:06.505Z,4.40
2023-07-18T14:36:30.799Z,5.00
2023-07-18T14:38:58.774Z,5.10
2023-07-18T14:41:27.891Z,5.77
2023-07-18T14:43:56.358Z,5.33
2023-07-18T14:48:52.920Z,4.30
2023-07-18T14:51:21.528Z,4.27
2023-07-18T14:53:49.570Z,5.07
2023-07-18T14:56:18.362Z,4.73
2023-07-18T14:58:47.332Z,4.67
2023-07-18T15:01:16.188Z,4.30
2023-07-18T15:03:44.948Z,4.67
2023-07-18T15:06:13.904Z,4.90
2023-07-18T15:08:42.586Z,4.33
2023-07-18T15:11:11.644Z,5.70
2023-07-18T15:13:40.262Z,4.83
2023-07-18T15:16:08.504Z,5.13
2023-07-18T15:18:38.474Z,4.90
2023-07-18T15:21:07.070Z,5.30
2023-07-18T15:23:35.948Z,4.70
2023-07-18T15:26:04.728Z,4.43
2023-07-18T15:28:33.614Z,4.93
2023-07-18T15:31:02.165Z,4.40
2023-07-18T15:35:57.842Z,4.20
2023-07-18T15:38:25.935Z,5.07
2023-07-18T15:40:54.510Z,4.70
2023-07-18T15:45:49.845Z,4.78
2023-07-18T15:48:18.667Z,4.13
2023-07-18T15:50:47.391Z,4.23
2023-07-18T15:53:16.607Z,4.17
2023-07-18T15:55:45.883Z,4.40
2023-07-18T15:58:14.597Z,4.70
2023-07-18T16:00:43.182Z,4.30
2023-07-18T16:03:11.269Z,4.10
2023-07-18T16:05:39.937Z,4.10
2023-07-18T16:08:07.898Z,4.10
2023-07-18T16:10:35.968Z,4.43
2023-07-18T16:13:04.494Z,4.20
2023-07-18T16:15:33.045Z,4.37
2023-07-18T16:18:05.154Z,4.37
2023-07-18T16:20:33.559Z,4.57
2023-07-18T16:23:02.069Z,4.70
2023-07-18T16:27:57.315Z,4.25
2023-07-18T16:30:26.182Z,4.63
2023-07-18T16:32:55.987Z,4.20
2023-07-18T16:35:25.091Z,4.30
2023-07-18T16:37:53.862Z,4.47
2023-07-18T16:40:22.680Z,4.70
2023-07-18T16:42:51.415Z,4.33
2023-07-18T16:45:20.224Z,4.60
2023-07-18T16:47:49.035Z,4.13
2023-07-18T16:50:17.596Z,4.33
2023-07-18T16:55:14.320Z,4.40
2023-07-18T16:57:43.084Z,4.87
2023-07-18T17:00:12.369Z,5.07
2023-07-18T17:02:41.384Z,4.90
2023-07-18T17:05:10.640Z,4.80
2023-07-18T17:07:39.640Z,4.70
2023-07-18T17:10:09.148Z,4.87
2023-07-18T17:12:37.826Z,4.30
2023-07-18T17:15:11.139Z,4.87
2023-07-18T17:17:40.359Z,5.47
2023-07-18T17:20:11.072Z,4.50
2023-07-18T17:22:40.850Z,5.40
2023-07-18T17:25:09.861Z,5.23
2023-07-18T17:27:37.852Z,4.73
2023-07-18T17:30:07.035Z,4.80
2023-07-18T17:32:35.521Z,4.80
2023-07-18T17:37:32.168Z,4.78
2023-07-18T17:40:02.030Z,5.27
2023-07-18T17:42:31.593Z,5.10
2023-07-18T17:45:00.692Z,4.50
2023-07-18T17:47:29.205Z,5.33
2023-07-18T17:52:25.820Z,5.22
2023-07-18T17:54:54.924Z,5.90
2023-07-18T17:57:23.702Z,5.47
2023-07-18T17:59:53.201Z,5.40
2023-07-18T18:02:22.119Z,6.27
2023-07-18T18:04:53.166Z,7.97
2023-07-18T18:07:23.257Z,6.83
2023-07-18T18:09:51.462Z,5.80
2023-07-18T18:12:20.244Z,4.70
2023-07-18T18:14:49.638Z,5.90
2023-07-18T18:17:17.825Z,5.40
2023-07-18T18:19:47.728Z,5.40
2023-07-18T18:22:16.045Z,5.70
2023-07-18T18:24:44.696Z,4.83
2023-07-18T18:29:39.670Z,5.30
2023-07-18T18:32:08.298Z,4.63
2023-07-18T18:34:37.291Z,5.73
2023-07-18T18:37:06.780Z,6.10
2023-07-18T18:39:34.881Z,5.03
2023-07-18T18:42:03.329Z,5.10
2023-07-18T18:44:32.044Z,5.50
2023-07-18T18:49:27.783Z,5.10
2023-07-18T18:51:57.255Z,4.97
2023-07-18T18:54:26.315Z,5.90
2023-07-18T18:56:54.582Z,5.87
2023-07-18T18:59:23.324Z,5.50
2023-07-18T19:04:20.271Z,4.67
2023-07-18T19:09:16.335Z,7.30
2023-07-18T19:14:11.780Z,5.80
2023-07-18T19:16:41.123Z,6.07
2023-07-18T19:19:10.170Z,6.90
2023-07-18T19:21:38.201Z,6.43
2023-07-18T19:24:07.334Z,6.47
2023-07-18T19:26:35.513Z,7.53
2023-07-18T19:29:04.793Z,7.70
2023-07-18T19:31:33.620Z,7.10
2023-07-18T19:36:29.223Z,7.25
2023-07-18T19:38:58.007Z,7.00
2023-07-18T19:41:26.531Z,6.50
2023-07-18T19:43:55.173Z,12.17
2023-07-18T19:46:24.233Z,6.80
2023-07-18T19:48:52.415Z,6.90
2023-07-18T19:51:21.312Z,6.87
2023-07-18T19:53:50.334Z,6.67
2023-07-18T19:56:19.118Z,6.00
2023-07-18T19:58:47.639Z,6.73
2023-07-18T20:01:19.372Z,6.63
2023-07-18T20:03:58.671Z,6.23
2023-07-18T20:06:20.004Z,6.60
2023-07-18T20:08:48.608Z,6.90
2023-07-18T20:11:17.403Z,8.10
2023-07-18T20:13:46.280Z,13.10
2023-07-18T20:16:15.184Z,7.00
2023-07-18T20:18:44.291Z,6.80
2023-07-18T20:21:13.240Z,6.53
2023-07-18T20:26:10.651Z,6.40
2023-07-18T20:28:39.316Z,7.27
2023-07-18T20:31:08.001Z,7.63
2023-07-18T20:33:36.385Z,6.77
2023-07-18T20:36:05.069Z,6.83
2023-07-18T20:38:33.260Z,6.53
2023-07-18T20:41:02.386Z,6.40
2023-07-18T20:43:31.143Z,7.23
2023-07-18T20:46:03.586Z,6.53
2023-07-18T20:48:34.245Z,6.57
2023-07-18T20:51:02.821Z,6.80
2023-07-18T20:53:31.597Z,7.43
2023-07-18T20:58:27.559Z,6.70
2023-07-18T21:00:56.363Z,6.87
2023-07-18T21:05:53.313Z,5.70
2023-07-18T21:08:22.094Z,6.80
2023-07-18T21:13:17.951Z,6.10
2023-07-18T21:15:46.652Z,6.47
2023-07-18T21:18:14.680Z,5.90
2023-07-18T21:20:43.164Z,6.37
2023-07-18T21:23:12.360Z,5.83
2023-07-18T21:25:41.157Z,6.07
2023-07-18T21:28:10.044Z,6.00
2023-07-18T21:30:38.081Z,6.33
2023-07-18T21:33:06.212Z,5.93
2023-07-18T21:35:35.247Z,5.70
2023-07-18T21:38:03.876Z,5.67
2023-07-18T21:40:31.729Z,5.73
2023-07-18T21:43:00.424Z,5.90
2023-07-18T21:45:29.227Z,5.17
2023-07-18T21:47:58.003Z,5.90
2023-07-18T21:55:20.978Z,5.30
2023-07-18T21:57:49.577Z,5.60
2023-07-18T22:00:19.593Z,5.33
2023-07-18T22:02:48.739Z,4.50
2023-07-18T22:05:17.478Z,4.90
2023-07-18T22:07:46.252Z,4.90
2023-07-18T22:12:43.507Z,4.92
2023-07-18T22:15:12.656Z,4.87
2023-07-18T22:17:41.467Z,4.93
2023-07-18T22:20:10.735Z,5.33
2023-07-18T22:22:41.599Z,5.50
2023-07-18T22:25:11.248Z,5.40
2023-07-18T22:27:39.818Z,4.03
2023-07-18T22:30:09.355Z,5.30
2023-07-18T22:32:38.001Z,4.47
2023-07-18T22:35:06.882Z,4.57
2023-07-18T22:40:02.532Z,5.05
2023-07-18T22:42:30.424Z,4.60
2023-07-18T22:44:58.786Z,4.07
2023-07-18T22:47:27.579Z,5.03
2023-07-18T22:52:23.446Z,4.70
2023-07-18T22:54:52.492Z,5.00
2023-07-18T22:57:20.898Z,5.23
2023-07-18T22:59:49.578Z,4.23
2023-07-18T23:02:18.421Z,4.60
2023-07-18T23:04:47.862Z,4.97
2023-07-18T23:07:15.880Z,5.00
2023-07-18T23:09:44.334Z,5.20
2023-07-18T23:12:12.653Z,5.23
2023-07-18T23:14:41.533Z,4.53
2023-07-18T23:19:38.584Z,4.58
2023-07-18T23:22:07.701Z,4.57
2023-07-18T23:24:36.148Z,4.50
2023-07-18T23:27:04.848Z,5.10
2023-07-18T23:29:32.806Z,5.97
2023-07-18T23:32:02.202Z,6.37
2023-07-18T23:34:30.768Z,6.23
2023-07-18T23:36:59.582Z,6.33
2023-07-18T23:39:27.668Z,6.07
2023-07-18T23:41:56.377Z,6.57
2023-07-18T23:44:25.261Z,6.40
2023-07-18T23:51:47.191Z,6.08
2023-07-18T23:54:15.312Z,6.27
2023-07-18T23:56:43.349Z,6.73
2023-07-18T23:59:11.260Z,7.83
